sensor_id;sensor_type;location;lat;lon;timestamp;P1;durP1;ratioP1;P2;durP2;ratioP2
2646;SDS011;1333;50.958;6.770;2022-12-18T00:01:43;14.67;;;8.37;;
2646;SDS011;1333;50.958;6.770;2022-12-18T00:04:04;9.00;;;8.10;;
2646;SDS011;1333;50.958;6.770;2022-12-18T00:06:58;17.23;;;9.43;;
2646;SDS011;1333;50.958;6.770;2022-12-18T00:09:25;18.70;;;8.47;;
2646;SDS011;1333;50.958;6.770;2022-12-18T00:11:51;9.93;;;6.70;;
2646;SDS011;1333;50.958;6.770;2022-12-18T00:14:16;16.00;;;7.90;;
2646;SDS011;1333;50.958;6.770;2022-12-18T00:16:43;11.40;;;6.57;;
2646;SDS011;1333;50.958;6.770;2022-12-18T00:19:10;15.90;;;7.23;;
2646;SDS011;1333;50.958;6.770;2022-12-18T00:21:49;12.60;;;8.10;;
2646;SDS011;1333;50.958;6.770;2022-12-18T00:24:52;19.83;;;6.40;;
2646;SDS011;1333;50.958;6.770;2022-12-18T00:27:18;18.60;;;7.37;;
2646;SDS011;1333;50.958;6.770;2022-12-18T00:29:43;10.83;;;8.47;;
2646;SDS011;1333;50.958;6.770;2022-12-18T00:32:09;14.03;;;7.97;;
2646;SDS011;1333;50.958;6.770;2022-12-18T00:34:35;12.60;;;7.80;;
2646;SDS011;1333;50.958;6.770;2022-12-18T00:37:00;12.70;;;6.43;;
2646;SDS011;1333;50.958;6.770;2022-12-18T00:39:26;21.27;;;8.17;;
2646;SDS011;1333;50.958;6.770;2022-12-18T00:41:51;14.60;;;6.77;;
2646;SDS011;1333;50.958;6.770;2022-12-18T00:44:37;14.93;;;7.27;;
2646;SDS011;1333;50.958;6.770;2022-12-18T00:47:03;13.00;;;7.40;;
2646;SDS011;1333;50.958;6.770;2022-12-18T00:49:28;10.43;;;6.83;;
2646;SDS011;1333;50.958;6.770;2022-12-18T00:51:56;8.27;;;5.10;;
2646;SDS011;1333;50.958;6.770;2022-12-18T00:54:24;12.63;;;6.50;;
2646;SDS011;1333;50.958;6.770;2022-12-18T00:56:53;10.13;;;6.80;;
2646;SDS011;1333;50.958;6.770;2022-12-18T00:59:20;12.93;;;6.33;;
2646;SDS011;1333;50.958;6.770;2022-12-18T01:01:46;13.73;;;7.00;;
2646;SDS011;1333;50.958;6.770;2022-12-18T01:04:14;17.70;;;7.67;;
2646;SDS011;1333;50.958;6.770;2022-12-18T01:06:41;15.00;;;5.63;;
2646;SDS011;1333;50.958;6.770;2022-12-18T01:09:07;18.67;;;6.50;;
2646;SDS011;1333;50.958;6.770;2022-12-18T01:11:32;13.20;;;6.00;;
2646;SDS011;1333;50.958;6.770;2022-12-18T01:13:58;13.17;;;6.60;;
2646;SDS011;1333;50.958;6.770;2022-12-18T01:16:23;18.13;;;6.47;;
2646;SDS011;1333;50.958;6.770;2022-12-18T01:18:52;14.27;;;7.63;;
2646;SDS011;1333;50.958;6.770;2022-12-18T01:21:19;11.57;;;6.97;;
2646;SDS011;1333;50.958;6.770;2022-12-18T01:23:46;12.47;;;6.30;;
2646;SDS011;1333;50.958;6.770;2022-12-18T01:26:15;21.40;;;7.97;;
2646;SDS011;1333;50.958;6.770;2022-12-18T01:28:41;13.73;;;6.57;;
2646;SDS011;1333;50.958;6.770;2022-12-18T01:31:27;19.90;;;7.97;;
2646;SDS011;1333;50.958;6.770;2022-12-18T01:33:54;13.50;;;8.33;;
2646;SDS011;1333;50.958;6.770;2022-12-18T01:36:24;13.53;;;7.90;;
2646;SDS011;1333;50.958;6.770;2022-12-18T01:38:55;13.40;;;9.03;;
2646;SDS011;1333;50.958;6.770;2022-12-18T01:41:27;9.83;;;7.57;;
2646;SDS011;1333;50.958;6.770;2022-12-18T01:47:15;15.67;;;7.50;;
2646;SDS011;1333;50.958;6.770;2022-12-18T01:50:09;11.67;;;5.10;;
2646;SDS011;1333;50.958;6.770;2022-12-18T01:52:48;10.77;;;6.27;;
2646;SDS011;1333;50.958;6.770;2022-12-18T01:55:20;15.20;;;6.47;;
2646;SDS011;1333;50.958;6.770;2022-12-18T01:57:50;18.97;;;8.27;;
2646;SDS011;1333;50.958;6.770;2022-12-18T02:00:20;17.87;;;5.60;;
2646;SDS011;1333;50.958;6.770;2022-12-18T02:02:52;15.83;;;6.20;;
2646;SDS011;1333;50.958;6.770;2022-12-18T02:10:39;13.00;;;5.63;;
2646;SDS011;1333;50.958;6.770;2022-12-18T02:15:54;19.00;;;7.60;;
2646;SDS011;1333;50.958;6.770;2022-12-18T02:18:41;11.30;;;5.53;;
2646;SDS011;1333;50.958;6.770;2022-12-18T02:24:00;15.47;;;7.67;;
2646;SDS011;1333;50.958;6.770;2022-12-18T02:26:41;11.77;;;6.97;;
2646;SDS011;1333;50.958;6.770;2022-12-18T02:32:14;19.63;;;8.03;;
2646;SDS011;1333;50.958;6.770;2022-12-18T02:34:42;10.00;;;6.23;;
2646;SDS011;1333;50.958;6.770;2022-12-18T02:37:10;12.93;;;6.30;;
2646;SDS011;1333;50.958;6.770;2022-12-18T02:39:40;15.57;;;7.80;;
2646;SDS011;1333;50.958;6.770;2022-12-18T02:42:08;11.83;;;7.83;;
2646;SDS011;1333;50.958;6.770;2022-12-18T02:44:35;10.00;;;6.87;;
2646;SDS011;1333;50.958;6.770;2022-12-18T02:47:11;12.87;;;6.57;;
2646;SDS011;1333;50.958;6.770;2022-12-18T02:58:36;21.27;;;6.27;;
2646;SDS011;1333;50.958;6.770;2022-12-18T03:00:58;14.10;;;7.30;;
2646;SDS011;1333;50.958;6.770;2022-12-18T03:03:26;12.13;;;8.63;;
2646;SDS011;1333;50.958;6.770;2022-12-18T03:06:04;24.30;;;10.57;;
2646;SDS011;1333;50.958;6.770;2022-12-18T03:08:36;9.90;;;6.00;;
2646;SDS011;1333;50.958;6.770;2022-12-18T03:16:05;11.13;;;5.30;;
2646;SDS011;1333;50.958;6.770;2022-12-18T03:21:14;14.70;;;8.77;;
2646;SDS011;1333;50.958;6.770;2022-12-18T03:23:44;14.63;;;7.63;;
2646;SDS011;1333;50.958;6.770;2022-12-18T03:26:15;13.13;;;6.77;;
2646;SDS011;1333;50.958;6.770;2022-12-18T03:28:50;13.17;;;7.20;;
2646;SDS011;1333;50.958;6.770;2022-12-18T03:31:20;14.63;;;6.43;;
2646;SDS011;1333;50.958;6.770;2022-12-18T03:33:52;16.57;;;9.30;;
2646;SDS011;1333;50.958;6.770;2022-12-18T03:36:20;20.93;;;7.03;;
2646;SDS011;1333;50.958;6.770;2022-12-18T03:38:46;14.07;;;8.00;;
2646;SDS011;1333;50.958;6.770;2022-12-18T03:41:17;14.40;;;7.57;;
2646;SDS011;1333;50.958;6.770;2022-12-18T03:43:52;14.27;;;6.40;;
2646;SDS011;1333;50.958;6.770;2022-12-18T03:46:25;13.60;;;8.70;;
2646;SDS011;1333;50.958;6.770;2022-12-18T03:48:58;12.77;;;6.90;;
2646;SDS011;1333;50.958;6.770;2022-12-18T03:51:31;21.10;;;9.10;;
2646;SDS011;1333;50.958;6.770;2022-12-18T03:54:11;20.27;;;8.33;;
2646;SDS011;1333;50.958;6.770;2022-12-18T03:56:39;10.20;;;6.20;;
2646;SDS011;1333;50.958;6.770;2022-12-18T03:59:13;14.50;;;7.90;;
2646;SDS011;1333;50.958;6.770;2022-12-18T04:01:43;20.83;;;10.00;;
2646;SDS011;1333;50.958;6.770;2022-12-18T04:04:13;16.50;;;7.77;;
2646;SDS011;1333;50.958;6.770;2022-12-18T04:06:41;14.50;;;6.43;;
2646;SDS011;1333;50.958;6.770;2022-12-18T04:09:07;16.83;;;8.50;;
2646;SDS011;1333;50.958;6.770;2022-12-18T04:11:33;13.80;;;6.23;;
2646;SDS011;1333;50.958;6.770;2022-12-18T04:13:59;11.63;;;6.17;;
2646;SDS011;1333;50.958;6.770;2022-12-18T04:16:25;11.77;;;6.53;;
2646;SDS011;1333;50.958;6.770;2022-12-18T04:18:51;18.43;;;7.60;;
2646;SDS011;1333;50.958;6.770;2022-12-18T04:21:17;15.13;;;9.37;;
2646;SDS011;1333;50.958;6.770;2022-12-18T04:23:43;12.00;;;6.50;;
2646;SDS011;1333;50.958;6.770;2022-12-18T04:26:08;8.13;;;6.00;;
2646;SDS011;1333;50.958;6.770;2022-12-18T04:28:34;19.97;;;8.13;;
2646;SDS011;1333;50.958;6.770;2022-12-18T04:30:59;14.67;;;8.37;;
2646;SDS011;1333;50.958;6.770;2022-12-18T04:33:25;18.97;;;6.87;;
2646;SDS011;1333;50.958;6.770;2022-12-18T04:35:51;16.37;;;8.47;;
2646;SDS011;1333;50.958;6.770;2022-12-18T04:38:16;10.93;;;6.73;;
2646;SDS011;1333;50.958;6.770;2022-12-18T04:40:42;9.73;;;7.23;;
2646;SDS011;1333;50.958;6.770;2022-12-18T04:43:08;11.67;;;8.03;;
2646;SDS011;1333;50.958;6.770;2022-12-18T04:45:33;16.07;;;10.43;;
2646;SDS011;1333;50.958;6.770;2022-12-18T04:47:59;14.40;;;6.67;;
2646;SDS011;1333;50.958;6.770;2022-12-18T04:50:26;16.67;;;7.00;;
2646;SDS011;1333;50.958;6.770;2022-12-18T04:52:52;13.87;;;6.73;;
2646;SDS011;1333;50.958;6.770;2022-12-18T04:55:18;14.40;;;6.90;;
2646;SDS011;1333;50.958;6.770;2022-12-18T04:57:45;13.93;;;8.00;;
2646;SDS011;1333;50.958;6.770;2022-12-18T05:00:11;15.80;;;7.67;;
2646;SDS011;1333;50.958;6.770;2022-12-18T05:02:37;16.90;;;9.40;;
2646;SDS011;1333;50.958;6.770;2022-12-18T05:05:03;12.53;;;6.60;;
2646;SDS011;1333;50.958;6.770;2022-12-18T05:07:29;16.70;;;8.10;;
2646;SDS011;1333;50.958;6.770;2022-12-18T05:09:54;11.57;;;8.43;;
2646;SDS011;1333;50.958;6.770;2022-12-18T05:12:20;17.03;;;7.80;;
2646;SDS011;1333;50.958;6.770;2022-12-18T05:14:48;13.60;;;7.80;;
2646;SDS011;1333;50.958;6.770;2022-12-18T05:17:14;20.00;;;6.43;;
2646;SDS011;1333;50.958;6.770;2022-12-18T05:19:39;20.77;;;8.80;;
2646;SDS011;1333;50.958;6.770;2022-12-18T05:22:08;15.03;;;6.77;;
2646;SDS011;1333;50.958;6.770;2022-12-18T05:24:34;11.60;;;6.27;;
2646;SDS011;1333;50.958;6.770;2022-12-18T05:27:02;14.83;;;7.47;;
2646;SDS011;1333;50.958;6.770;2022-12-18T05:29:28;16.73;;;8.43;;
2646;SDS011;1333;50.958;6.770;2022-12-18T05:32:11;13.67;;;9.40;;
2646;SDS011;1333;50.958;6.770;2022-12-18T05:34:36;15.30;;;6.73;;
2646;SDS011;1333;50.958;6.770;2022-12-18T05:37:02;11.93;;;7.60;;
2646;SDS011;1333;50.958;6.770;2022-12-18T05:39:27;30.17;;;8.33;;
2646;SDS011;1333;50.958;6.770;2022-12-18T05:41:53;13.27;;;7.50;;
2646;SDS011;1333;50.958;6.770;2022-12-18T05:44:18;16.20;;;7.90;;
2646;SDS011;1333;50.958;6.770;2022-12-18T05:46:44;19.33;;;7.83;;
2646;SDS011;1333;50.958;6.770;2022-12-18T05:49:09;15.20;;;7.73;;
2646;SDS011;1333;50.958;6.770;2022-12-18T05:51:35;11.20;;;7.47;;
2646;SDS011;1333;50.958;6.770;2022-12-18T05:54:00;25.23;;;8.90;;
2646;SDS011;1333;50.958;6.770;2022-12-18T05:56:26;11.93;;;8.03;;
2646;SDS011;1333;50.958;6.770;2022-12-18T05:58:52;9.60;;;6.10;;
2646;SDS011;1333;50.958;6.770;2022-12-18T06:01:20;18.33;;;8.40;;
2646;SDS011;1333;50.958;6.770;2022-12-18T06:03:48;12.90;;;6.10;;
2646;SDS011;1333;50.958;6.770;2022-12-18T06:06:24;9.47;;;6.40;;
2646;SDS011;1333;50.958;6.770;2022-12-18T06:08:54;9.63;;;6.10;;
2646;SDS011;1333;50.958;6.770;2022-12-18T06:11:22;17.97;;;8.07;;
2646;SDS011;1333;50.958;6.770;2022-12-18T06:13:55;17.27;;;7.00;;
2646;SDS011;1333;50.958;6.770;2022-12-18T06:16:21;20.17;;;7.70;;
2646;SDS011;1333;50.958;6.770;2022-12-18T06:18:47;13.97;;;7.80;;
2646;SDS011;1333;50.958;6.770;2022-12-18T06:21:12;15.13;;;8.63;;
2646;SDS011;1333;50.958;6.770;2022-12-18T06:23:38;14.23;;;7.70;;
2646;SDS011;1333;50.958;6.770;2022-12-18T06:26:05;16.40;;;8.40;;
2646;SDS011;1333;50.958;6.770;2022-12-18T06:28:32;14.83;;;7.80;;
2646;SDS011;1333;50.958;6.770;2022-12-18T06:30:57;20.73;;;10.73;;
2646;SDS011;1333;50.958;6.770;2022-12-18T06:33:25;16.03;;;6.33;;
2646;SDS011;1333;50.958;6.770;2022-12-18T06:35:52;25.50;;;9.40;;
2646;SDS011;1333;50.958;6.770;2022-12-18T06:38:17;18.30;;;8.87;;
2646;SDS011;1333;50.958;6.770;2022-12-18T06:40:43;18.00;;;8.40;;
2646;SDS011;1333;50.958;6.770;2022-12-18T06:43:08;20.87;;;9.00;;
2646;SDS011;1333;50.958;6.770;2022-12-18T06:45:34;16.90;;;8.30;;
2646;SDS011;1333;50.958;6.770;2022-12-18T06:47:59;23.83;;;10.30;;
2646;SDS011;1333;50.958;6.770;2022-12-18T06:50:25;18.50;;;9.07;;
2646;SDS011;1333;50.958;6.770;2022-12-18T06:52:50;15.40;;;8.37;;
2646;SDS011;1333;50.958;6.770;2022-12-18T06:55:16;13.57;;;6.30;;
2646;SDS011;1333;50.958;6.770;2022-12-18T06:57:41;15.70;;;7.90;;
2646;SDS011;1333;50.958;6.770;2022-12-18T07:00:07;14.67;;;7.77;;
2646;SDS011;1333;50.958;6.770;2022-12-18T07:02:33;25.93;;;8.60;;
2646;SDS011;1333;50.958;6.770;2022-12-18T07:04:59;14.03;;;8.00;;
2646;SDS011;1333;50.958;6.770;2022-12-18T07:07:25;16.43;;;7.70;;
2646;SDS011;1333;50.958;6.770;2022-12-18T07:09:50;21.37;;;8.90;;
2646;SDS011;1333;50.958;6.770;2022-12-18T07:12:16;17.87;;;9.93;;
2646;SDS011;1333;50.958;6.770;2022-12-18T07:14:42;13.37;;;7.00;;
2646;SDS011;1333;50.958;6.770;2022-12-18T07:17:08;13.83;;;7.73;;
2646;SDS011;1333;50.958;6.770;2022-12-18T07:19:33;14.20;;;7.23;;
2646;SDS011;1333;50.958;6.770;2022-12-18T07:21:59;14.83;;;7.47;;
2646;SDS011;1333;50.958;6.770;2022-12-18T07:24:25;17.73;;;9.20;;
2646;SDS011;1333;50.958;6.770;2022-12-18T07:26:50;17.87;;;8.00;;
2646;SDS011;1333;50.958;6.770;2022-12-18T07:29:16;19.80;;;9.33;;
2646;SDS011;1333;50.958;6.770;2022-12-18T07:31:42;14.10;;;8.20;;
2646;SDS011;1333;50.958;6.770;2022-12-18T07:34:11;14.40;;;9.00;;
2646;SDS011;1333;50.958;6.770;2022-12-18T07:36:38;15.83;;;7.47;;
2646;SDS011;1333;50.958;6.770;2022-12-18T07:39:03;10.33;;;5.50;;
2646;SDS011;1333;50.958;6.770;2022-12-18T07:41:29;13.80;;;8.63;;
2646;SDS011;1333;50.958;6.770;2022-12-18T07:43:55;12.73;;;7.93;;
2646;SDS011;1333;50.958;6.770;2022-12-18T07:46:20;15.33;;;8.23;;
2646;SDS011;1333;50.958;6.770;2022-12-18T07:48:46;24.83;;;10.33;;
2646;SDS011;1333;50.958;6.770;2022-12-18T07:51:11;15.07;;;9.40;;
2646;SDS011;1333;50.958;6.770;2022-12-18T07:53:38;9.77;;;6.70;;
2646;SDS011;1333;50.958;6.770;2022-12-18T07:56:05;10.87;;;8.17;;
2646;SDS011;1333;50.958;6.770;2022-12-18T07:58:33;18.23;;;7.60;;
2646;SDS011;1333;50.958;6.770;2022-12-18T08:01:05;16.90;;;8.97;;
2646;SDS011;1333;50.958;6.770;2022-12-18T08:03:33;22.60;;;7.97;;
2646;SDS011;1333;50.958;6.770;2022-12-18T08:05:59;10.43;;;7.00;;
2646;SDS011;1333;50.958;6.770;2022-12-18T08:08:26;17.43;;;8.10;;
2646;SDS011;1333;50.958;6.770;2022-12-18T08:10:52;21.73;;;9.57;;
2646;SDS011;1333;50.958;6.770;2022-12-18T08:13:18;16.73;;;9.23;;
2646;SDS011;1333;50.958;6.770;2022-12-18T08:15:43;14.10;;;10.00;;
2646;SDS011;1333;50.958;6.770;2022-12-18T08:18:09;14.83;;;8.87;;
2646;SDS011;1333;50.958;6.770;2022-12-18T08:20:34;23.03;;;10.27;;
2646;SDS011;1333;50.958;6.770;2022-12-18T08:23:00;20.03;;;10.00;;
2646;SDS011;1333;50.958;6.770;2022-12-18T08:25:25;19.20;;;10.33;;
2646;SDS011;1333;50.958;6.770;2022-12-18T08:27:51;17.37;;;9.73;;
2646;SDS011;1333;50.958;6.770;2022-12-18T08:30:17;19.67;;;10.03;;
2646;SDS011;1333;50.958;6.770;2022-12-18T08:32:42;14.97;;;9.43;;
2646;SDS011;1333;50.958;6.770;2022-12-18T08:35:08;15.03;;;8.87;;
2646;SDS011;1333;50.958;6.770;2022-12-18T08:37:34;15.00;;;8.83;;
2646;SDS011;1333;50.958;6.770;2022-12-18T08:39:59;14.30;;;8.33;;
2646;SDS011;1333;50.958;6.770;2022-12-18T08:42:25;13.07;;;7.30;;
2646;SDS011;1333;50.958;6.770;2022-12-18T08:45:13;10.73;;;6.33;;
2646;SDS011;1333;50.958;6.770;2022-12-18T08:47:39;15.23;;;8.80;;
2646;SDS011;1333;50.958;6.770;2022-12-18T08:50:05;20.27;;;8.53;;
2646;SDS011;1333;50.958;6.770;2022-12-18T08:52:31;13.23;;;8.27;;
2646;SDS011;1333;50.958;6.770;2022-12-18T08:54:57;12.97;;;8.67;;
2646;SDS011;1333;50.958;6.770;2022-12-18T08:57:23;14.60;;;8.47;;
2646;SDS011;1333;50.958;6.770;2022-12-18T08:59:48;13.90;;;8.33;;
2646;SDS011;1333;50.958;6.770;2022-12-18T09:02:14;18.33;;;8.97;;
2646;SDS011;1333;50.958;6.770;2022-12-18T09:04:39;14.77;;;8.30;;
2646;SDS011;1333;50.958;6.770;2022-12-18T09:07:05;12.83;;;7.97;;
2646;SDS011;1333;50.958;6.770;2022-12-18T09:09:30;12.93;;;7.70;;
2646;SDS011;1333;50.958;6.770;2022-12-18T09:11:56;14.90;;;7.97;;
2646;SDS011;1333;50.958;6.770;2022-12-18T09:14:21;14.50;;;7.20;;
2646;SDS011;1333;50.958;6.770;2022-12-18T09:16:47;12.10;;;6.77;;
2646;SDS011;1333;50.958;6.770;2022-12-18T09:19:12;13.97;;;7.87;;
2646;SDS011;1333;50.958;6.770;2022-12-18T09:21:38;12.13;;;8.13;;
2646;SDS011;1333;50.958;6.770;2022-12-18T09:24:04;11.80;;;7.20;;
2646;SDS011;1333;50.958;6.770;2022-12-18T09:26:30;12.63;;;7.67;;
2646;SDS011;1333;50.958;6.770;2022-12-18T09:28:56;13.47;;;8.73;;
2646;SDS011;1333;50.958;6.770;2022-12-18T09:31:22;13.60;;;8.47;;
2646;SDS011;1333;50.958;6.770;2022-12-18T09:33:49;11.80;;;8.60;;
2646;SDS011;1333;50.958;6.770;2022-12-18T09:36:15;13.30;;;7.30;;
2646;SDS011;1333;50.958;6.770;2022-12-18T09:38:42;15.00;;;7.10;;
2646;SDS011;1333;50.958;6.770;2022-12-18T09:41:28;15.67;;;7.60;;
2646;SDS011;1333;50.958;6.770;2022-12-18T09:46:58;10.37;;;7.43;;
2646;SDS011;1333;50.958;6.770;2022-12-18T09:49:26;17.30;;;7.97;;
2646;SDS011;1333;50.958;6.770;2022-12-18T09:51:58;13.07;;;7.00;;
2646;SDS011;1333;50.958;6.770;2022-12-18T09:54:43;12.20;;;6.80;;
2646;SDS011;1333;50.958;6.770;2022-12-18T09:57:17;13.73;;;7.83;;
2646;SDS011;1333;50.958;6.770;2022-12-18T09:59:47;12.83;;;6.73;;
2646;SDS011;1333;50.958;6.770;2022-12-18T10:02:23;18.33;;;7.43;;
2646;SDS011;1333;50.958;6.770;2022-12-18T10:05:33;15.00;;;8.30;;
2646;SDS011;1333;50.958;6.770;2022-12-18T10:10:54;12.70;;;7.10;;
2646;SDS011;1333;50.958;6.770;2022-12-18T10:13:30;9.23;;;6.67;;
2646;SDS011;1333;50.958;6.770;2022-12-18T10:24:53;12.50;;;8.40;;
2646;SDS011;1333;50.958;6.770;2022-12-18T10:27:40;14.57;;;7.60;;
2646;SDS011;1333;50.958;6.770;2022-12-18T10:30:16;12.77;;;7.80;;
2646;SDS011;1333;50.958;6.770;2022-12-18T10:32:45;12.63;;;7.50;;
2646;SDS011;1333;50.958;6.770;2022-12-18T10:35:15;12.43;;;8.10;;
2646;SDS011;1333;50.958;6.770;2022-12-18T10:43:30;15.23;;;8.20;;
2646;SDS011;1333;50.958;6.770;2022-12-18T10:51:46;12.60;;;7.17;;
2646;SDS011;1333;50.958;6.770;2022-12-18T10:54:05;14.30;;;7.90;;
2646;SDS011;1333;50.958;6.770;2022-12-18T10:56:39;13.87;;;7.30;;
2646;SDS011;1333;50.958;6.770;2022-12-18T10:59:06;14.70;;;8.10;;
2646;SDS011;1333;50.958;6.770;2022-12-18T11:04:13;9.43;;;5.90;;
2646;SDS011;1333;50.958;6.770;2022-12-18T11:07:05;16.80;;;8.87;;
2646;SDS011;1333;50.958;6.770;2022-12-18T11:09:33;12.53;;;6.80;;
2646;SDS011;1333;50.958;6.770;2022-12-18T11:14:43;15.57;;;7.53;;
2646;SDS011;1333;50.958;6.770;2022-12-18T11:17:48;10.47;;;6.60;;
2646;SDS011;1333;50.958;6.770;2022-12-18T11:22:58;15.43;;;9.00;;
2646;SDS011;1333;50.958;6.770;2022-12-18T11:25:26;11.90;;;7.43;;
2646;SDS011;1333;50.958;6.770;2022-12-18T11:27:56;13.17;;;7.50;;
2646;SDS011;1333;50.958;6.770;2022-12-18T11:30:37;12.00;;;7.07;;
2646;SDS011;1333;50.958;6.770;2022-12-18T11:33:17;14.27;;;8.33;;
2646;SDS011;1333;50.958;6.770;2022-12-18T11:36:01;14.20;;;8.30;;
2646;SDS011;1333;50.958;6.770;2022-12-18T11:38:30;12.53;;;7.27;;
2646;SDS011;1333;50.958;6.770;2022-12-18T11:44:24;13.93;;;7.67;;
2646;SDS011;1333;50.958;6.770;2022-12-18T11:50:03;16.93;;;9.47;;
2646;SDS011;1333;50.958;6.770;2022-12-18T11:52:54;19.77;;;9.53;;
2646;SDS011;1333;50.958;6.770;2022-12-18T11:55:37;16.20;;;6.90;;
2646;SDS011;1333;50.958;6.770;2022-12-18T11:58:24;12.10;;;5.93;;
2646;SDS011;1333;50.958;6.770;2022-12-18T12:06:23;16.03;;;7.50;;
2646;SDS011;1333;50.958;6.770;2022-12-18T12:14:43;14.60;;;7.27;;
2646;SDS011;1333;50.958;6.770;2022-12-18T12:17:22;22.27;;;8.60;;
2646;SDS011;1333;50.958;6.770;2022-12-18T12:20:00;13.30;;;9.77;;
2646;SDS011;1333;50.958;6.770;2022-12-18T12:33:52;17.17;;;7.60;;
2646;SDS011;1333;50.958;6.770;2022-12-18T12:39:11;20.93;;;9.47;;
2646;SDS011;1333;50.958;6.770;2022-12-18T12:41:41;17.70;;;7.43;;
2646;SDS011;1333;50.958;6.770;2022-12-18T12:44:30;15.07;;;9.33;;
2646;SDS011;1333;50.958;6.770;2022-12-18T12:47:11;18.27;;;7.43;;
2646;SDS011;1333;50.958;6.770;2022-12-18T12:49:45;13.40;;;8.63;;
2646;SDS011;1333;50.958;6.770;2022-12-18T12:52:18;17.03;;;8.97;;
2646;SDS011;1333;50.958;6.770;2022-12-18T12:55:07;22.33;;;7.70;;
2646;SDS011;1333;50.958;6.770;2022-12-18T12:57:48;17.13;;;8.27;;
2646;SDS011;1333;50.958;6.770;2022-12-18T13:00:46;15.30;;;8.23;;
2646;SDS011;1333;50.958;6.770;2022-12-18T13:06:19;16.07;;;8.97;;
2646;SDS011;1333;50.958;6.770;2022-12-18T13:09:01;13.33;;;7.57;;
2646;SDS011;1333;50.958;6.770;2022-12-18T13:11:38;15.70;;;9.17;;
2646;SDS011;1333;50.958;6.770;2022-12-18T13:19:41;17.40;;;7.60;;
2646;SDS011;1333;50.958;6.770;2022-12-18T13:22:19;13.80;;;7.70;;
2646;SDS011;1333;50.958;6.770;2022-12-18T13:25:00;17.03;;;8.93;;
2646;SDS011;1333;50.958;6.770;2022-12-18T13:28:10;12.40;;;7.87;;
2646;SDS011;1333;50.958;6.770;2022-12-18T13:38:21;15.77;;;10.37;;
2646;SDS011;1333;50.958;6.770;2022-12-18T13:45:49;14.17;;;9.13;;
2646;SDS011;1333;50.958;6.770;2022-12-18T13:48:29;20.87;;;8.90;;
2646;SDS011;1333;50.958;6.770;2022-12-18T13:56:44;15.97;;;9.50;;
2646;SDS011;1333;50.958;6.770;2022-12-18T14:07:05;20.50;;;8.20;;
2646;SDS011;1333;50.958;6.770;2022-12-18T14:09:36;16.20;;;9.63;;
2646;SDS011;1333;50.958;6.770;2022-12-18T14:12:06;16.90;;;10.20;;
2646;SDS011;1333;50.958;6.770;2022-12-18T14:14:51;13.40;;;7.80;;
2646;SDS011;1333;50.958;6.770;2022-12-18T14:17:18;15.17;;;8.50;;
2646;SDS011;1333;50.958;6.770;2022-12-18T14:19:47;15.73;;;8.80;;
2646;SDS011;1333;50.958;6.770;2022-12-18T14:22:16;15.27;;;9.07;;
2646;SDS011;1333;50.958;6.770;2022-12-18T14:27:41;16.60;;;9.90;;
2646;SDS011;1333;50.958;6.770;2022-12-18T14:33:00;18.23;;;10.23;;
2646;SDS011;1333;50.958;6.770;2022-12-18T14:35:29;13.07;;;8.53;;
2646;SDS011;1333;50.958;6.770;2022-12-18T14:38:09;26.03;;;10.53;;
2646;SDS011;1333;50.958;6.770;2022-12-18T14:40:41;18.40;;;9.57;;
2646;SDS011;1333;50.958;6.770;2022-12-18T14:43:10;19.03;;;9.47;;
2646;SDS011;1333;50.958;6.770;2022-12-18T14:45:36;18.67;;;9.50;;
2646;SDS011;1333;50.958;6.770;2022-12-18T14:48:06;17.53;;;10.10;;
2646;SDS011;1333;50.958;6.770;2022-12-18T14:53:32;17.87;;;9.53;;
2646;SDS011;1333;50.958;6.770;2022-12-18T14:56:13;18.30;;;9.60;;
2646;SDS011;1333;50.958;6.770;2022-12-18T14:58:48;20.67;;;9.77;;
2646;SDS011;1333;50.958;6.770;2022-12-18T15:01:26;26.17;;;12.33;;
2646;SDS011;1333;50.958;6.770;2022-12-18T15:03:54;17.07;;;8.90;;
2646;SDS011;1333;50.958;6.770;2022-12-18T15:06:29;18.40;;;9.77;;
2646;SDS011;1333;50.958;6.770;2022-12-18T15:08:57;22.37;;;10.07;;
2646;SDS011;1333;50.958;6.770;2022-12-18T15:13:59;13.63;;;9.40;;
2646;SDS011;1333;50.958;6.770;2022-12-18T15:16:49;12.93;;;7.60;;
2646;SDS011;1333;50.958;6.770;2022-12-18T15:19:16;16.43;;;8.53;;
2646;SDS011;1333;50.958;6.770;2022-12-18T15:21:42;22.57;;;10.27;;
2646;SDS011;1333;50.958;6.770;2022-12-18T15:24:15;17.07;;;9.47;;
2646;SDS011;1333;50.958;6.770;2022-12-18T15:26:43;23.70;;;10.73;;
2646;SDS011;1333;50.958;6.770;2022-12-18T15:29:19;21.63;;;11.00;;
2646;SDS011;1333;50.958;6.770;2022-12-18T15:31:57;24.13;;;9.67;;
2646;SDS011;1333;50.958;6.770;2022-12-18T15:34:24;19.43;;;10.57;;
2646;SDS011;1333;50.958;6.770;2022-12-18T15:36:51;17.90;;;9.30;;
2646;SDS011;1333;50.958;6.770;2022-12-18T15:39:16;27.40;;;9.83;;
2646;SDS011;1333;50.958;6.770;2022-12-18T15:41:42;20.40;;;8.00;;
2646;SDS011;1333;50.958;6.770;2022-12-18T15:44:28;17.13;;;10.60;;
2646;SDS011;1333;50.958;6.770;2022-12-18T15:46:54;17.60;;;9.93;;
2646;SDS011;1333;50.958;6.770;2022-12-18T15:49:19;16.37;;;8.67;;
2646;SDS011;1333;50.958;6.770;2022-12-18T15:51:45;17.10;;;9.47;;
2646;SDS011;1333;50.958;6.770;2022-12-18T15:54:20;17.27;;;7.80;;
2646;SDS011;1333;50.958;6.770;2022-12-18T15:57:10;18.63;;;9.50;;
2646;SDS011;1333;50.958;6.770;2022-12-18T15:59:48;16.77;;;10.03;;
2646;SDS011;1333;50.958;6.770;2022-12-18T16:02:16;26.60;;;10.97;;
2646;SDS011;1333;50.958;6.770;2022-12-18T16:04:42;23.50;;;10.90;;
2646;SDS011;1333;50.958;6.770;2022-12-18T16:07:09;23.87;;;10.00;;
2646;SDS011;1333;50.958;6.770;2022-12-18T16:09:34;19.37;;;10.00;;
2646;SDS011;1333;50.958;6.770;2022-12-18T16:12:01;20.33;;;9.20;;
2646;SDS011;1333;50.958;6.770;2022-12-18T16:14:27;24.70;;;11.00;;
2646;SDS011;1333;50.958;6.770;2022-12-18T16:16:58;20.37;;;11.77;;
2646;SDS011;1333;50.958;6.770;2022-12-18T16:19:26;22.77;;;11.00;;
2646;SDS011;1333;50.958;6.770;2022-12-18T16:21:52;17.00;;;9.53;;
2646;SDS011;1333;50.958;6.770;2022-12-18T16:24:21;17.60;;;10.40;;
2646;SDS011;1333;50.958;6.770;2022-12-18T16:26:50;22.70;;;10.70;;
2646;SDS011;1333;50.958;6.770;2022-12-18T16:29:19;18.93;;;9.40;;
2646;SDS011;1333;50.958;6.770;2022-12-18T16:31:51;22.60;;;9.47;;
2646;SDS011;1333;50.958;6.770;2022-12-18T16:34:25;18.00;;;10.57;;
2646;SDS011;1333;50.958;6.770;2022-12-18T16:37:03;21.93;;;10.10;;
2646;SDS011;1333;50.958;6.770;2022-12-18T16:39:30;19.60;;;10.07;;
2646;SDS011;1333;50.958;6.770;2022-12-18T16:41:58;20.37;;;9.63;;
2646;SDS011;1333;50.958;6.770;2022-12-18T16:44:23;23.60;;;10.77;;
2646;SDS011;1333;50.958;6.770;2022-12-18T16:46:49;21.60;;;9.77;;
2646;SDS011;1333;50.958;6.770;2022-12-18T16:49:15;18.00;;;10.10;;
2646;SDS011;1333;50.958;6.770;2022-12-18T16:51:47;25.23;;;10.73;;
2646;SDS011;1333;50.958;6.770;2022-12-18T16:54:13;37.00;;;11.70;;
2646;SDS011;1333;50.958;6.770;2022-12-18T16:56:39;17.80;;;10.57;;
2646;SDS011;1333;50.958;6.770;2022-12-18T16:59:06;18.40;;;9.97;;
2646;SDS011;1333;50.958;6.770;2022-12-18T17:01:34;25.43;;;11.20;;
2646;SDS011;1333;50.958;6.770;2022-12-18T17:04:00;26.43;;;11.30;;
2646;SDS011;1333;50.958;6.770;2022-12-18T17:06:30;28.37;;;12.10;;
2646;SDS011;1333;50.958;6.770;2022-12-18T17:08:57;21.13;;;11.90;;
2646;SDS011;1333;50.958;6.770;2022-12-18T17:11:25;27.10;;;12.70;;
2646;SDS011;1333;50.958;6.770;2022-12-18T17:13:52;19.10;;;11.00;;
2646;SDS011;1333;50.958;6.770;2022-12-18T17:16:18;20.00;;;11.10;;
2646;SDS011;1333;50.958;6.770;2022-12-18T17:18:43;28.43;;;13.20;;
2646;SDS011;1333;50.958;6.770;2022-12-18T17:21:09;25.13;;;11.73;;
2646;SDS011;1333;50.958;6.770;2022-12-18T17:23:37;20.57;;;12.47;;
2646;SDS011;1333;50.958;6.770;2022-12-18T17:26:03;21.37;;;10.07;;
2646;SDS011;1333;50.958;6.770;2022-12-18T17:28:31;28.30;;;9.53;;
2646;SDS011;1333;50.958;6.770;2022-12-18T17:30:57;19.57;;;10.70;;
2646;SDS011;1333;50.958;6.770;2022-12-18T17:33:23;22.40;;;10.40;;
2646;SDS011;1333;50.958;6.770;2022-12-18T17:35:49;20.97;;;10.97;;
2646;SDS011;1333;50.958;6.770;2022-12-18T17:38:14;20.87;;;11.73;;
2646;SDS011;1333;50.958;6.770;2022-12-18T17:40:43;27.90;;;10.93;;
2646;SDS011;1333;50.958;6.770;2022-12-18T17:43:09;19.83;;;12.07;;